GMT,Max TemperatureF,Mean TemperatureF,Min TemperatureF,Max Dew PointF,MeanDew PointF,Min DewpointF,Max Humidity, Mean Humidity, Min Humidity, Max Sea Level PressureIn, Mean Sea Level PressureIn, Min Sea Level PressureIn, Max VisibilityMiles, Mean VisibilityMiles, Min VisibilityMiles, Max Wind SpeedMPH, Mean Wind SpeedMPH, Max Gust SpeedMPH,PrecipitationIn, CloudCover, Events, WindDirDegrees
2011-10-1,55,52,48,52,50,48,100,93,82,30.21,30.20,30.18,6,6,0,9,7,,0.00,6,Fog-Rain,19
2011-10-2,57,54,51,55,54,52,100,97,94,30.12,30.10,30.06,6,4,0,7,4,,0.00,6,Fog-Rain,220
2011-10-3,57,54,50,55,51,43,100,88,63,29.95,29.85,29.77,6,5,0,28,17,37,0.00,5,Fog-Rain,235
2011-10-4,57,54,50,50,46,43,94,79,63,30.01,29.99,29.92,6,6,4,16,12,25,0.00,6,Rain,232
2011-10-5,57,54,50,57,54,48,100,95,88,29.71,29.68,29.65,6,4,2,26,20,39,0.00,7,Rain,239
2011-10-6,50,46,42,46,41,37,93,80,62,29.89,29.79,29.71,6,6,3,38,21,53,0.00,5,Rain,274
2011-10-7,51,48,46,48,45,43,100,86,71,30.30,30.24,30.12,6,6,5,18,16,,0.00,4,Rain,297
2011-10-8,59,56,53,57,56,54,100,99,88,30.21,30.18,30.09,6,2,0,23,14,,0.00,7,Fog-Rain,244
2011-10-9,57,56,55,57,56,55,100,98,94,29.92,29.91,29.89,6,3,1,24,17,40,0.00,7,Fog-Rain,243
2011-10-10,59,55,51,57,54,52,100,98,94,29.92,29.86,29.77,6,3,0,28,18,43,0.00,7,Fog-Rain,257
2011-10-11,57,56,55,57,56,55,100,100,100,30.04,29.99,29.92,3,1,0,18,17,28,0.00,8,Fog-Rain,252
2011-10-12,55,54,51,55,53,52,100,95,88,30.21,30.12,30.01,6,4,0,14,9,,0.00,7,Fog-Rain,283
2011-10-13,55,52,48,54,50,48,100,96,88,30.30,30.28,30.27,6,5,0,13,7,,0.00,7,Fog,158
2011-10-14,57,55,53,55,53,52,100,94,88,30.21,30.19,30.12,6,5,0,17,13,28,0.00,6,Fog-Rain,168
2011-10-15,55,52,48,55,49,46,100,93,77,30.09,30.07,30.04,6,4,1,14,10,,0.00,6,Rain,245
2011-10-16,53,48,42,48,46,43,100,88,72,30.09,30.05,29.98,6,6,4,17,10,30,0.00,5,Rain,205
2011-10-17,50,44,39,50,43,37,100,94,81,29.74,29.63,29.50,6,5,0,26,16,43,0.00,5,Rain,244
2011-10-18,48,44,41,43,40,36,93,82,71,29.89,29.79,29.71,6,6,4,22,17,33,0.00,3,Rain,274
2011-10-19,48,44,39,39,38,36,100,81,62,30.30,30.19,30.06,6,6,4,16,12,29,0.00,4,Rain,302
2011-10-20,50,44,39,50,44,39,100,94,87,30.30,30.19,30.06,6,6,4,21,9,32,0.00,6,Rain,200
2011-10-21,53,52,51,54,52,52,100,99,94,29.92,29.87,29.80,6,4,1,21,17,32,0.00,7,Rain,198
2011-10-22,50,48,46,50,48,45,100,94,82,29.56,29.51,29.47,6,6,4,22,14,34,0.00,6,Rain,211
2011-10-23,53,48,46,54,47,45,100,97,93,29.36,29.24,28.97,6,5,0,16,10,,0.00,8,Rain,118
2011-10-24,53,50,46,54,49,46,100,98,94,29.15,29.07,28.85,6,5,0,23,12,34,0.00,7,Fog-Rain,176
2011-10-25,48,45,42,46,44,43,100,97,87,29.30,29.22,29.18,6,6,2,7,3,,0.00,6,Rain,201
2011-10-26,48,42,37,43,40,37,100,91,71,29.36,29.34,29.30,6,4,0,21,10,32,0.00,6,Fog-Rain,159
2011-10-27,51,46,41,46,43,39,100,87,66,29.83,29.71,29.56,6,5,0,14,6,,0.00,3,Fog-Rain,243
2011-10-28,51,44,37,50,45,37,100,91,82,29.98,29.94,29.86,6,6,0,24,14,41,0.00,6,Fog-Rain,172
2011-10-29,55,53,51,54,52,50,100,96,88,29.68,29.63,29.59,6,6,2,25,19,40,0.00,7,Rain,202
2011-10-30,57,54,51,57,54,50,100,98,94,29.77,29.74,29.68,6,2,0,18,16,,0.00,8,Fog-Rain,183
2011-10-31,55,52,48,54,49,46,100,94,88,29.50,29.46,29.42,6,6,2,23,17,33,0.00,6,Rain,192